Saturday, October 20, 2018, 9:42 PM EDT
Back to Local

KMSV, Monticello, Sullivan County International Airport

Location: Swan Lake, NY, United States Lat: 41.7
Local Time: 9:42 PM EDT ( 1:42 GMT) Lon: -74.8
Time Zone: US/Eastern Elev: 1404 ft

Show me the last for .
Show Decoded

2018-10-20 20:56 METAR KMSV 210056Z AUTO 24004KT 10SM FEW060 BKN080 BKN120 06/06 A2964 RMK AO2
                 RAB03E27 SLP041 P0001 T00610056 =
2018-10-20 20:18 METAR KMSV 210018Z AUTO 30004KT 10SM -RA FEW001 BKN044 BKN055 07/06 A2963 RMK
                 AO2 RAB03 P0001 =
2018-10-20 19:56 METAR KMSV 202356Z AUTO 28006KT 10SM SCT047 BKN055 OVC075 07/06 A2963 RMK AO2
                 RAE26 SLP038 P0000 60006 T00670056 10139 20067 50005 =
2018-10-20 19:30 METAR KMSV 202330Z AUTO 31005KT 10SM FEW002 BKN049 OVC065 07/06 A2963 RMK AO2
                 RAE26 P0000 =
2018-10-20 19:04 METAR KMSV 202304Z AUTO 31005KT 10SM -RA BKN002 BKN044 OVC085 07/06 A2963 RMK
                 AO2 P0000 =
2018-10-20 18:56 METAR KMSV 202256Z AUTO 31007KT 10SM -RA SCT002 BKN046 OVC080 07/06 A2963 RMK
                 AO2 RAB2159E25B48 SLP039 P0000 T00670056 =
2018-10-20 17:56 METAR KMSV 202156Z AUTO 30004KT 10SM FEW001 BKN046 BKN090 07/06 A2962 RMK AO2
                 RAB02E40 SLP036 P0006 T00720061 =
2018-10-20 17:37 METAR KMSV 202137Z AUTO 31006KT 10SM -RA FEW001 BKN038 OVC090 07/06 A2962 RMK
                 AO2 RAB02 P0006 =
2018-10-20 17:30 METAR KMSV 202130Z AUTO 32010KT 7SM -RA FEW001 BKN029 OVC055 07/06 A2962 RMK AO2
                 RAB02 CIG 019V035 P0006 =
2018-10-20 16:56 METAR KMSV 202056Z AUTO 31006KT 10SM FEW110 11/05 A2961 RMK AO2 SLP031 60000
                 T01060050 58009 =
2018-10-20 15:56 METAR KMSV 201956Z AUTO VRB04KT 10SM FEW034 OVC065 11/06 A2964 RMK AO2 RAB15E37
                 SLP039 P0000 T01060061 =
2018-10-20 15:52 METAR KMSV 201952Z AUTO 32006KT 10SM FEW002 SCT034 OVC060 11/06 A2964 RMK AO2
                 RAB15E37 P0000 =
2018-10-20 14:56 METAR KMSV 201856Z AUTO 33012G22KT 10SM SCT039 SCT047 OVC060 11/05 A2964 RMK AO2
                 WSHFT 1823 SLP041 T01110050 =
2018-10-20 14:43 METAR KMSV 201843Z AUTO 32016G22KT 10SM BKN042 BKN055 OVC070 11/04 A2965 RMK AO2
                 WSHFT 1823 =
2018-10-20 13:56 METAR KMSV 201756Z AUTO 24012G20KT 200V260 10SM FEW033 BKN045 OVC070 14/06 A2964
                 RMK AO2 SLP039 T01390056 10139 20089 58021 =
2018-10-20 12:56 METAR KMSV 201656Z AUTO 28010G19KT 240V310 10SM FEW030 BKN037 BKN050 13/06 A2966
                 RMK AO2 SLP047 T01280056 =
2018-10-20 12:40 METAR KMSV 201640Z AUTO 27011G21KT 10SM BKN030 BKN035 13/06 A2967 RMK AO2 =
2018-10-20 11:56 METAR KMSV 201556Z AUTO 26005G18KT 10SM BKN025 OVC030 12/07 A2969 RMK AO2 SLP057
                 T01170067 =
2018-10-20 10:56 METAR KMSV 201456Z AUTO VRB06KT 10SM BKN020 OVC026 11/07 A2971 RMK AO2 SLP063
                 T01060067 58001 =
2018-10-20 10:19 METAR KMSV 201419Z AUTO 25007KT 10SM BKN018 OVC027 11/07 A2971 RMK AO2 =
2018-10-20 09:56 METAR KMSV 201356Z AUTO 27011G16KT 230V300 10SM OVC014 10/07 A2971 RMK AO2
                 SLP066 T01000072 =
2018-10-20 08:56 METAR KMSV 201256Z AUTO 26006KT 10SM OVC010 09/08 A2972 RMK AO2 SLP068 T00940078
                 =
2018-10-20 07:56 METAR KMSV 201156Z AUTO 25007KT 10SM OVC010 09/08 A2971 RMK AO2 SLP065 60003
                 70003 T00890078 10089 20078 55002 =
2018-10-20 06:56 METAR KMSV 201056Z AUTO 25009G16KT 10SM OVC012 09/08 A2970 RMK AO2 SLP062
                 T00890078 =
2018-10-20 05:56 METAR KMSV 200956Z AUTO 24005KT 10SM OVC012 08/08 A2970 RMK AO2 RAB39E49 SLP061
                 P0000 T00830078 =
2018-10-20 04:56 METAR KMSV 200856Z AUTO 22006KT 10SM OVC014 08/08 A2972 RMK AO2 SLP065 60003
                 T00830078 56034 =
2018-10-20 04:37 METAR KMSV 200837Z AUTO VRB06KT 10SM OVC014 08/07 A2972 RMK AO2 =
2018-10-20 04:21 METAR KMSV 200821Z AUTO VRB04KT 10SM BKN016 OVC028 08/07 A2972 RMK AO2 =
2018-10-20 03:56 METAR KMSV 200756Z AUTO 21005KT 10SM BKN030 OVC037 08/07 A2973 RMK AO2 RAE03
                 SLP069 P0000 T00830072 =
2018-10-20 02:56 METAR KMSV 200656Z AUTO 22005KT 10SM -RA FEW001 OVC050 08/07 A2976 RMK AO2
                 SLP080 P0003 T00830072 =
2018-10-20 01:56 METAR KMSV 200556Z AUTO 22005KT 10SM -RA FEW003 BKN050 OVC060 08/06 A2982 RMK
                 AO2 RAB35 SLP099 P0000 60000 T00830061 10089 20067 56025 =
2018-10-20 01:41 METAR KMSV 200541Z AUTO 24004KT 10SM -RA FEW001 BKN065 OVC090 09/06 A2983 RMK
                 AO2 RAB35 P0000 =
2018-10-20 00:56 METAR KMSV 200456Z AUTO 20004KT 10SM SCT070 OVC090 08/06 A2984 RMK AO2 SLP107
                 T00830056 401611039 =
2018-10-19 23:56 METAR KMSV 200356Z AUTO 00000KT 10SM BKN100 07/04 A2986 RMK AO2 SLP115 T00720039
                 =
2018-10-19 22:56 METAR KMSV 200256Z AUTO 20003KT 10SM SCT110 08/03 A2990 RMK AO2 SLP131 T00780028
                 56026 =
2018-10-19 21:56 METAR KMSV 200156Z AUTO 00000KT 10SM CLR 07/01 A2992 RMK AO2 SLP139 T00720011 =

Support USWX by starting your Amazon purchase here.